Darstellungsparameter: Aktuell verwendete Einstellungen:
Skalierung der Graphiken ... ?
xyx+y,   Skalierungsfaktor:      Skalierung: Modus: x, Faktor: 1
Darstellungszeitraum ... ?
Vom - - bis: - -   Zeitraum: 29.08.2015 - 29.08.2015
Min/Max/Avg-Anzeige ... ?
Zeige MMA aktuell
Zeige MMA Monat
Zeige MMA alles
Zeige --A aktuell
Zeige --A Monat
Zeige --A alles
Keine MMA-Anzeige
MMA:
Average (ber die Originaldaten)
MMA-Basis: 29.08.2015 - 29.08.2015
Quicknavigation für Darstellung... ?
Tage:      1T, 2T, 3T, 5T -1T -2T -3T -5T +1T +2T +3T +5T
Wochen: 1W, 2W, 3W -1W -2W -3W +1W +2W +3W
Monate: 1M, 3M, 6M -1M -3M -6M +1M +3M +6M
Jahre:    1J, 3J, 5J, 10J -1J -3J -5J -10J +1J +3J +5J +10J
Nutze für die Darstellung ... ?
Originaldaten oder Mittelwerte auf ...
Stundenbasis Tagesbasis Wochenbasis
Monatsbasis Jahresbasis      Datenbasis: Original-Daten
Darstellen als:
Statistik (Auto) Statistik J:M      Darstellung:
Zur Graphik,    zurück zur Übersicht aller Sensoren.
 
Tabellarische Datenbersicht: ?
 
Sensor: Nr:Datum:Temp:Abs-Feuchte:Windchill:Wind:
Aussen-T/F 1 29-08-2015 00:00:00 14.6 C 11.76 g/m*3 14.6 C 0 km/h
2 29-08-2015 00:05:00 14.5 C 11.69 g/m*3 14.5 C 0 km/h
3 29-08-2015 00:10:00 14.5 C 11.69 g/m*3 14.5 C 0 km/h
4 29-08-2015 00:15:00 14.4 C 11.62 g/m*3 14.4 C 0 km/h
5 29-08-2015 00:20:00 14.3 C 11.55 g/m*3 14.3 C 0 km/h
6 29-08-2015 00:25:00 14.2 C 11.6 g/m*3 14.2 C 0 km/h
7 29-08-2015 00:30:00 14.2 C 11.6 g/m*3 14.2 C 0 km/h
8 29-08-2015 00:35:00 14.2 C 11.6 g/m*3 14.2 C 0 km/h
9 29-08-2015 00:40:00 14.1 C 11.53 g/m*3 14.1 C 0 km/h
10 29-08-2015 00:45:00 14 C 11.46 g/m*3 14 C 0 km/h
11 29-08-2015 00:50:00 13.9 C 11.39 g/m*3 13.9 C 0 km/h
12 29-08-2015 00:55:00 13.8 C 11.32 g/m*3 13.8 C 0 km/h
13 29-08-2015 01:00:00 13.8 C 11.32 g/m*3 13.8 C 0 km/h
14 29-08-2015 01:05:00 13.8 C 11.32 g/m*3 13.8 C 0 km/h
15 29-08-2015 01:10:00 13.8 C 11.32 g/m*3 13.8 C 0 km/h
16 29-08-2015 01:15:00 13.8 C 11.32 g/m*3 13.8 C 0 km/h
17 29-08-2015 01:20:00 13.7 C 11.25 g/m*3 13.7 C 0 km/h
18 29-08-2015 01:25:00 13.6 C 11.18 g/m*3 13.6 C 0 km/h
19 29-08-2015 01:30:00 13.6 C 11.18 g/m*3 13.6 C 0 km/h
20 29-08-2015 01:35:00 13.6 C 11.18 g/m*3 13.6 C 0 km/h
21 29-08-2015 01:40:00 13.5 C 11.11 g/m*3 13.5 C 0 km/h
22 29-08-2015 01:45:00 13.5 C 11.11 g/m*3 13.5 C 0 km/h
23 29-08-2015 01:50:00 13.4 C 11.04 g/m*3 13.4 C 0 km/h
24 29-08-2015 01:55:00 13.4 C 11.16 g/m*3 13.4 C 0 km/h
25 29-08-2015 02:00:00 13.4 C 11.16 g/m*3 13.4 C 0 km/h
Sensor: Nr:Datum:Temp:Abs-Feuchte:Windchill:Wind:
Aussen-T/F 26 29-08-2015 02:05:00 13.4 C 11.16 g/m*3 13.4 C 0 km/h
27 29-08-2015 02:10:00 13.4 C 11.16 g/m*3 13.4 C 0 km/h
28 29-08-2015 02:15:00 13.3 C 11.09 g/m*3 13.3 C 0 km/h
29 29-08-2015 02:20:00 13.3 C 11.09 g/m*3 13.3 C 0 km/h
30 29-08-2015 02:25:00 13.3 C 11.09 g/m*3 13.3 C 0 km/h
31 29-08-2015 02:30:00 13.3 C 11.09 g/m*3 13.3 C 0 km/h
32 29-08-2015 02:35:00 13.2 C 11.02 g/m*3 13.2 C 0 km/h
33 29-08-2015 02:40:00 13.2 C 11.02 g/m*3 13.2 C 0 km/h
34 29-08-2015 02:45:00 13.1 C 10.95 g/m*3 13.1 C 0 km/h
35 29-08-2015 02:50:00 13 C 10.89 g/m*3 13 C 0 km/h
36 29-08-2015 02:55:00 13 C 10.89 g/m*3 13 C 0 km/h
37 29-08-2015 03:00:00 13.1 C 10.95 g/m*3 13.1 C 0 km/h
38 29-08-2015 03:05:00 13.2 C 11.02 g/m*3 13.2 C 0 km/h
39 29-08-2015 03:10:00 13.3 C 11.09 g/m*3 13.3 C 0 km/h
40 29-08-2015 03:15:00 13.4 C 11.16 g/m*3 13.4 C 0 km/h
41 29-08-2015 03:20:00 13.4 C 11.16 g/m*3 13.4 C 0 km/h
42 29-08-2015 03:25:00 13.6 C 11.3 g/m*3 13.6 C 0 km/h
43 29-08-2015 03:30:00 13.6 C 11.3 g/m*3 13.6 C 0 km/h
44 29-08-2015 03:35:00 13.7 C 11.37 g/m*3 13.7 C 0 km/h
45 29-08-2015 03:40:00 13.8 C 11.56 g/m*3 13.8 C 0 km/h
46 29-08-2015 03:45:00 13.8 C 11.56 g/m*3 13.8 C 0 km/h
47 29-08-2015 03:50:00 13.8 C 11.56 g/m*3 13.8 C 0 km/h
48 29-08-2015 03:55:00 13.8 C 11.56 g/m*3 13.8 C 0 km/h
49 29-08-2015 04:00:00 13.8 C 11.56 g/m*3 13.8 C 0 km/h
50 29-08-2015 04:05:00 13.8 C 11.56 g/m*3 13.8 C 0 km/h
Sensor: Nr:Datum:Temp:Abs-Feuchte:Windchill:Wind:
Aussen-T/F 51 29-08-2015 04:10:00 13.8 C 11.56 g/m*3 13.8 C 0 km/h
52 29-08-2015 04:15:00 13.8 C 11.56 g/m*3 13.8 C 0 km/h
53 29-08-2015 04:20:00 13.8 C 11.56 g/m*3 13.8 C 3.2 km/h
54 29-08-2015 04:25:00 13.8 C 11.56 g/m*3 13.8 C 3.2 km/h
55 29-08-2015 04:30:00 13.7 C 11.49 g/m*3 13.7 C 0 km/h
56 29-08-2015 04:35:00 13.7 C 11.37 g/m*3 13.7 C 0 km/h
57 29-08-2015 04:40:00 13.7 C 11.37 g/m*3 13.7 C 0 km/h
58 29-08-2015 04:45:00 13.7 C 11.37 g/m*3 13.7 C 0 km/h
59 29-08-2015 04:50:00 13.7 C 11.37 g/m*3 13.7 C 0 km/h
60 29-08-2015 04:55:00 13.7 C 11.37 g/m*3 13.7 C 0 km/h
61 29-08-2015 05:00:00 13.6 C 11.3 g/m*3 13.6 C 0 km/h
62 29-08-2015 05:05:00 13.6 C 11.3 g/m*3 13.6 C 0 km/h
63 29-08-2015 05:10:00 13.6 C 11.42 g/m*3 13.6 C 0 km/h
64 29-08-2015 05:15:00 13.6 C 11.42 g/m*3 13.6 C 0 km/h
65 29-08-2015 05:20:00 13.7 C 11.49 g/m*3 13.7 C 0 km/h
66 29-08-2015 05:25:00 13.7 C 11.49 g/m*3 13.7 C 0 km/h
67 29-08-2015 05:30:00 13.7 C 11.49 g/m*3 13.7 C 0 km/h
68 29-08-2015 05:35:00 13.7 C 11.49 g/m*3 13.7 C 0 km/h
69 29-08-2015 05:40:00 13.7 C 11.49 g/m*3 13.7 C 0 km/h
70 29-08-2015 05:45:00 13.7 C 11.49 g/m*3 13.7 C 0 km/h
71 29-08-2015 05:50:00 13.8 C 11.56 g/m*3 13.8 C 0 km/h
72 29-08-2015 05:55:00 13.8 C 11.56 g/m*3 13.8 C 0 km/h
73 29-08-2015 06:00:00 13.8 C 11.56 g/m*3 13.8 C 0 km/h
74 29-08-2015 06:05:00 13.8 C 11.56 g/m*3 13.8 C 0 km/h
75 29-08-2015 06:10:00 13.8 C 11.56 g/m*3 13.8 C 0 km/h
Sensor: Nr:Datum:Temp:Abs-Feuchte:Windchill:Wind:
Aussen-T/F 76 29-08-2015 06:15:00 13.8 C 11.56 g/m*3 13.8 C 0 km/h
77 29-08-2015 06:20:00 13.9 C 11.63 g/m*3 13.9 C 0 km/h
78 29-08-2015 06:25:00 13.9 C 11.63 g/m*3 13.9 C 0 km/h
79 29-08-2015 06:30:00 13.9 C 11.63 g/m*3 13.9 C 0 km/h
80 29-08-2015 06:35:00 13.9 C 11.63 g/m*3 13.9 C 0 km/h
81 29-08-2015 06:40:00 13.9 C 11.63 g/m*3 13.9 C 0 km/h
82 29-08-2015 06:45:00 14 C 11.7 g/m*3 14 C 0 km/h
83 29-08-2015 06:50:00 14.1 C 11.77 g/m*3 14.1 C 0 km/h
84 29-08-2015 06:55:00 14.1 C 11.77 g/m*3 14.1 C 0 km/h
85 29-08-2015 07:00:00 14.1 C 11.77 g/m*3 14.1 C 0 km/h
86 29-08-2015 07:05:00 14.1 C 11.77 g/m*3 14.1 C 0 km/h
87 29-08-2015 07:10:00 14.2 C 11.84 g/m*3 14.2 C 0 km/h
88 29-08-2015 07:15:00 14.2 C 11.84 g/m*3 14.2 C 0 km/h
89 29-08-2015 07:20:00 14.2 C 11.84 g/m*3 14.2 C 0 km/h
90 29-08-2015 07:25:00 14.2 C 11.84 g/m*3 14.2 C 0 km/h
91 29-08-2015 07:30:00 14.3 C 11.92 g/m*3 14.3 C 0 km/h
92 29-08-2015 07:35:00 14.3 C 11.92 g/m*3 14.3 C 0 km/h
93 29-08-2015 07:40:00 14.3 C 11.92 g/m*3 14.3 C 0 km/h
94 29-08-2015 07:45:00 14.3 C 11.92 g/m*3 14.3 C 0 km/h
95 29-08-2015 07:50:00 14.3 C 11.92 g/m*3 14.3 C 0 km/h
96 29-08-2015 07:55:00 14.4 C 11.99 g/m*3 14.4 C 0 km/h
97 29-08-2015 08:00:00 14.4 C 11.99 g/m*3 14.4 C 0 km/h
98 29-08-2015 08:05:00 14.5 C 12.06 g/m*3 14.5 C 0 km/h
99 29-08-2015 08:10:00 14.6 C 12.14 g/m*3 14.6 C 0 km/h
100 29-08-2015 08:15:00 14.6 C 12.14 g/m*3 14.6 C 0 km/h
Sensor: Nr:Datum:Temp:Abs-Feuchte:Windchill:Wind:
Aussen-T/F 101 29-08-2015 08:20:00 14.7 C 12.21 g/m*3 14.7 C 0 km/h
102 29-08-2015 08:25:00 14.7 C 12.21 g/m*3 14.7 C 1.6 km/h
103 29-08-2015 08:30:00 14.8 C 12.29 g/m*3 14.8 C 0 km/h
104 29-08-2015 08:35:00 14.8 C 12.29 g/m*3 14.8 C 0 km/h
105 29-08-2015 08:40:00 14.8 C 12.29 g/m*3 14.8 C 0 km/h
106 29-08-2015 08:45:00 14.9 C 12.36 g/m*3 14.9 C 0 km/h
107 29-08-2015 08:50:00 14.9 C 12.36 g/m*3 14.9 C 0 km/h
108 29-08-2015 08:55:00 15 C 12.44 g/m*3 15 C 0 km/h
109 29-08-2015 09:00:00 15.1 C 12.51 g/m*3 15.1 C 0 km/h
110 29-08-2015 09:05:00 15.1 C 12.51 g/m*3 15.1 C 0 km/h
111 29-08-2015 09:10:00 15.1 C 12.51 g/m*3 15.1 C 0 km/h
112 29-08-2015 09:15:00 15.1 C 12.51 g/m*3 15.1 C 0 km/h
113 29-08-2015 09:20:00 15.1 C 12.51 g/m*3 15.1 C 0 km/h
114 29-08-2015 09:25:00 15.1 C 12.51 g/m*3 15.1 C 0 km/h
115 29-08-2015 09:30:00 15.1 C 12.51 g/m*3 15.1 C 0 km/h
116 29-08-2015 09:35:00 15.2 C 12.59 g/m*3 15.2 C 0 km/h
117 29-08-2015 09:40:00 15.2 C 12.59 g/m*3 15.2 C 0 km/h
118 29-08-2015 09:45:00 15.2 C 12.59 g/m*3 15.2 C 0 km/h
119 29-08-2015 09:50:00 15.4 C 12.74 g/m*3 15.4 C 0 km/h
120 29-08-2015 09:55:00 15.7 C 12.98 g/m*3 15.7 C 0 km/h
121 29-08-2015 10:00:00 15.9 C 13.14 g/m*3 15.9 C 0 km/h
122 29-08-2015 10:05:00 16.1 C 13.3 g/m*3 16.1 C 1.6 km/h
123 29-08-2015 10:10:00 16.3 C 13.46 g/m*3 16.3 C 1.6 km/h
124 29-08-2015 10:15:00 16.5 C 13.62 g/m*3 16.5 C 6.4 km/h
125 29-08-2015 10:20:00 16.8 C 13.73 g/m*3 16.8 C 6.4 km/h
Sensor: Nr:Datum:Temp:Abs-Feuchte:Windchill:Wind:
Aussen-T/F 126 29-08-2015 10:25:00 17.3 C 14 g/m*3 17.3 C 3.2 km/h
127 29-08-2015 10:30:00 17.9 C 14.05 g/m*3 17.9 C 4.8 km/h
128 29-08-2015 10:35:00 18.3 C 13.92 g/m*3 18.3 C 4.8 km/h
129 29-08-2015 10:40:00 18.7 C 13.93 g/m*3 18.7 C 6.4 km/h
130 29-08-2015 10:45:00 18.7 C 13.93 g/m*3 18.7 C 4.8 km/h
131 29-08-2015 10:50:00 18.7 C 13.93 g/m*3 18.7 C 1.6 km/h
132 29-08-2015 10:55:00 18.5 C 14.08 g/m*3 18.5 C 1.6 km/h
133 29-08-2015 11:00:00 18.3 C 14.07 g/m*3 18.3 C 1.6 km/h
134 29-08-2015 11:05:00 18.3 C 14.07 g/m*3 18.3 C 1.6 km/h
135 29-08-2015 11:10:00 18.3 C 14.23 g/m*3 18.3 C 3.2 km/h
136 29-08-2015 11:15:00 18.3 C 14.23 g/m*3 18.3 C 1.6 km/h
137 29-08-2015 11:20:00 18.3 C 14.23 g/m*3 18.3 C 0 km/h
138 29-08-2015 11:25:00 18.3 C 14.38 g/m*3 18.3 C 0 km/h
139 29-08-2015 11:30:00 18.3 C 14.38 g/m*3 18.3 C 1.6 km/h
140 29-08-2015 11:35:00 18.3 C 14.38 g/m*3 18.3 C 0 km/h
141 29-08-2015 11:40:00 18.4 C 14.47 g/m*3 18.4 C 0 km/h
142 29-08-2015 11:45:00 18.7 C 14.73 g/m*3 18.7 C 3.2 km/h
143 29-08-2015 11:50:00 19.2 C 15.01 g/m*3 19.2 C 4.8 km/h
144 29-08-2015 11:55:00 19.6 C 15.19 g/m*3 19.6 C 3.2 km/h
145 29-08-2015 12:00:00 19.9 C 15.29 g/m*3 19.9 C 4.8 km/h
146 29-08-2015 12:05:00 20.4 C 15.21 g/m*3 20.4 C 6.4 km/h
147 29-08-2015 12:10:00 20.7 C 15.48 g/m*3 20.7 C 4.8 km/h
148 29-08-2015 12:15:00 20.8 C 15.57 g/m*3 20.8 C 4.8 km/h
149 29-08-2015 12:20:00 20.9 C 15.48 g/m*3 20.9 C 1.6 km/h
150 29-08-2015 12:25:00 21.1 C 15.48 g/m*3 21.1 C 3.2 km/h
Sensor: Nr:Datum:Temp:Abs-Feuchte:Windchill:Wind:
Aussen-T/F 151 29-08-2015 12:30:00 21.4 C 15.94 g/m*3 21.4 C 3.2 km/h
152 29-08-2015 12:35:00 21.6 C 15.93 g/m*3 21.6 C 3.2 km/h
153 29-08-2015 12:40:00 22.2 C 16.1 g/m*3 22.2 C 3.2 km/h
154 29-08-2015 12:45:00 22.8 C 15.65 g/m*3 22.8 C 4.8 km/h
155 29-08-2015 12:50:00 23.5 C 16.71 g/m*3 23.5 C 4.8 km/h
156 29-08-2015 12:55:00 23.9 C 16.23 g/m*3 23.9 C 3.2 km/h
157 29-08-2015 13:00:00 24.4 C 16.25 g/m*3 24.4 C 3.2 km/h
158 29-08-2015 13:05:00 24.7 C 16.3 g/m*3 24.7 C 3.2 km/h
159 29-08-2015 13:10:00 24.8 C 16.39 g/m*3 24.8 C 1.6 km/h
160 29-08-2015 13:15:00 25.1 C 16.67 g/m*3 25.1 C 1.6 km/h
161 29-08-2015 13:20:00 25.2 C 16.99 g/m*3 25.2 C 4.8 km/h
162 29-08-2015 13:25:00 25.4 C 17.19 g/m*3 25.4 C 4.8 km/h
163 29-08-2015 13:30:00 25.7 C 16.28 g/m*3 25.7 C 1.6 km/h
164 29-08-2015 13:35:00 26.1 C 17.38 g/m*3 26.1 C 1.6 km/h
165 29-08-2015 13:40:00 26.5 C 16.77 g/m*3 26.5 C 4.8 km/h
166 29-08-2015 13:45:00 26.8 C 17.05 g/m*3 26.8 C 6.4 km/h
167 29-08-2015 13:50:00 26.9 C 16.64 g/m*3 26.9 C 4.8 km/h
168 29-08-2015 13:55:00 26.9 C 17.15 g/m*3 26.9 C 1.6 km/h
169 29-08-2015 14:00:00 26.6 C 17.62 g/m*3 26.6 C 1.6 km/h
170 29-08-2015 14:05:00 26.4 C 16.43 g/m*3 26.4 C 3.2 km/h
171 29-08-2015 14:10:00 26.4 C 16.93 g/m*3 26.4 C 6.4 km/h
172 29-08-2015 14:15:00 26.6 C 16.61 g/m*3 26.6 C 6.4 km/h
173 29-08-2015 14:20:00 26.6 C 17.12 g/m*3 26.6 C 3.2 km/h
174 29-08-2015 14:25:00 26.2 C 18.22 g/m*3 26.2 C 1.6 km/h
175 29-08-2015 14:30:00 26 C 17.77 g/m*3 26 C 3.2 km/h
Sensor: Nr:Datum:Temp:Abs-Feuchte:Windchill:Wind:
Aussen-T/F 176 29-08-2015 14:35:00 26.1 C 16.89 g/m*3 26.1 C 4.8 km/h
177 29-08-2015 14:40:00 26.4 C 17.18 g/m*3 26.4 C 4.8 km/h
178 29-08-2015 14:45:00 27 C 17.5 g/m*3 27 C 3.2 km/h
179 29-08-2015 14:50:00 27.3 C 18.58 g/m*3 27.3 C 3.2 km/h
180 29-08-2015 14:55:00 27.4 C 17.37 g/m*3 27.4 C 6.4 km/h
181 29-08-2015 15:00:00 27.8 C 17.48 g/m*3 27.8 C 3.2 km/h
182 29-08-2015 15:05:00 28.1 C 16.95 g/m*3 28.1 C 3.2 km/h
183 29-08-2015 15:10:00 27.9 C 18.12 g/m*3 27.9 C 1.6 km/h
184 29-08-2015 15:15:00 27.1 C 18.63 g/m*3 27.1 C 1.6 km/h
185 29-08-2015 15:20:00 26.2 C 18.46 g/m*3 26.2 C 0 km/h
186 29-08-2015 15:25:00 25.2 C 18.16 g/m*3 25.2 C 0 km/h
187 29-08-2015 15:30:00 24.7 C 18.56 g/m*3 24.7 C 0 km/h
188 29-08-2015 15:35:00 24.4 C 18.03 g/m*3 24.4 C 0 km/h
189 29-08-2015 15:40:00 24.3 C 18.59 g/m*3 24.3 C 0 km/h
190 29-08-2015 15:45:00 24.9 C 17.4 g/m*3 24.9 C 4.8 km/h
191 29-08-2015 15:50:00 25.4 C 19.07 g/m*3 25.4 C 1.6 km/h
192 29-08-2015 15:55:00 25.3 C 18.73 g/m*3 25.3 C 1.6 km/h
193 29-08-2015 16:00:00 25.1 C 18.75 g/m*3 25.1 C 1.6 km/h
194 29-08-2015 16:05:00 24.7 C 18.56 g/m*3 24.7 C 1.6 km/h
195 29-08-2015 16:10:00 24.6 C 18.91 g/m*3 24.6 C 0 km/h
196 29-08-2015 16:15:00 24.7 C 18.79 g/m*3 24.7 C 1.6 km/h
197 29-08-2015 16:20:00 25 C 18.65 g/m*3 25 C 3.2 km/h
198 29-08-2015 16:25:00 25.8 C 17.57 g/m*3 25.8 C 6.4 km/h
199 29-08-2015 16:30:00 26.4 C 19.42 g/m*3 26.4 C 1.6 km/h
200 29-08-2015 16:35:00 26.2 C 18.96 g/m*3 26.2 C 0 km/h
Sensor: Nr:Datum:Temp:Abs-Feuchte:Windchill:Wind:
Aussen-T/F 201 29-08-2015 16:40:00 26 C 18.26 g/m*3 26 C 1.6 km/h
202 29-08-2015 16:45:00 26.7 C 18.73 g/m*3 26.7 C 4.8 km/h
203 29-08-2015 16:50:00 26.7 C 19.24 g/m*3 26.7 C 0 km/h
204 29-08-2015 16:55:00 26.4 C 18.92 g/m*3 26.4 C 3.2 km/h
205 29-08-2015 17:00:00 26.6 C 19.13 g/m*3 26.6 C 4.8 km/h
206 29-08-2015 17:05:00 27.2 C 17.7 g/m*3 27.2 C 6.4 km/h
207 29-08-2015 17:10:00 28 C 18.22 g/m*3 28 C 3.2 km/h
208 29-08-2015 17:15:00 27.8 C 19.37 g/m*3 27.8 C 1.6 km/h
209 29-08-2015 17:20:00 27.6 C 17.82 g/m*3 27.6 C 3.2 km/h
210 29-08-2015 17:25:00 28.1 C 18.59 g/m*3 28.1 C 3.2 km/h
211 29-08-2015 17:30:00 28.3 C 17.14 g/m*3 28.3 C 4.8 km/h
212 29-08-2015 17:35:00 28.4 C 19.74 g/m*3 28.4 C 3.2 km/h
213 29-08-2015 17:40:00 28.1 C 18.59 g/m*3 28.1 C 3.2 km/h
214 29-08-2015 17:45:00 27.8 C 19.63 g/m*3 27.8 C 1.6 km/h
215 29-08-2015 17:50:00 27.4 C 19.47 g/m*3 27.4 C 1.6 km/h
216 29-08-2015 17:55:00 27.1 C 19.41 g/m*3 27.1 C 0 km/h
217 29-08-2015 18:00:00 26.9 C 19.45 g/m*3 26.9 C 6.4 km/h
218 29-08-2015 18:05:00 26.9 C 19.45 g/m*3 26.9 C 1.6 km/h
219 29-08-2015 18:10:00 26.6 C 19.13 g/m*3 26.6 C 0 km/h
220 29-08-2015 18:15:00 26.3 C 19.31 g/m*3 26.3 C 0 km/h
221 29-08-2015 18:20:00 26.2 C 19.2 g/m*3 26.2 C 1.6 km/h
222 29-08-2015 18:25:00 26.2 C 19.45 g/m*3 26.2 C 1.6 km/h
223 29-08-2015 18:30:00 26.2 C 19.2 g/m*3 26.2 C 1.6 km/h
224 29-08-2015 18:35:00 26.1 C 19.1 g/m*3 26.1 C 1.6 km/h
225 29-08-2015 18:40:00 25.9 C 18.88 g/m*3 25.9 C 3.2 km/h
Sensor: Nr:Datum:Temp:Abs-Feuchte:Windchill:Wind:
Aussen-T/F 226 29-08-2015 18:45:00 25.7 C 18.91 g/m*3 25.7 C 1.6 km/h
227 29-08-2015 18:50:00 25.5 C 18.94 g/m*3 25.5 C 0 km/h
228 29-08-2015 18:55:00 25.4 C 18.83 g/m*3 25.4 C 0 km/h
229 29-08-2015 19:00:00 25.2 C 18.62 g/m*3 25.2 C 0 km/h
230 29-08-2015 19:05:00 24.9 C 18.77 g/m*3 24.9 C 0 km/h
231 29-08-2015 19:10:00 24.7 C 18.56 g/m*3 24.7 C 0 km/h
232 29-08-2015 19:15:00 24.3 C 18.15 g/m*3 24.3 C 0 km/h
233 29-08-2015 19:20:00 23.8 C 18.07 g/m*3 23.8 C 0 km/h
234 29-08-2015 19:25:00 23.6 C 18.08 g/m*3 23.6 C 0 km/h
235 29-08-2015 19:30:00 23.5 C 18.19 g/m*3 23.5 C 1.6 km/h
236 29-08-2015 19:35:00 23.3 C 17.98 g/m*3 23.3 C 1.6 km/h
237 29-08-2015 19:40:00 23.2 C 18.09 g/m*3 23.2 C 1.6 km/h
238 29-08-2015 19:45:00 23.1 C 17.98 g/m*3 23.1 C 1.6 km/h
239 29-08-2015 19:50:00 23.1 C 17.98 g/m*3 23.1 C 1.6 km/h
240 29-08-2015 19:55:00 22.9 C 17.78 g/m*3 22.9 C 1.6 km/h
241 29-08-2015 20:00:00 22.7 C 17.58 g/m*3 22.7 C 3.2 km/h
242 29-08-2015 20:05:00 22.6 C 17.68 g/m*3 22.6 C 1.6 km/h
243 29-08-2015 20:10:00 22.4 C 17.48 g/m*3 22.4 C 1.6 km/h
244 29-08-2015 20:15:00 22.3 C 17.57 g/m*3 22.3 C 3.2 km/h
245 29-08-2015 20:20:00 22.2 C 17.47 g/m*3 22.2 C 1.6 km/h
246 29-08-2015 20:25:00 22.1 C 17.37 g/m*3 22.1 C 1.6 km/h
247 29-08-2015 20:30:00 22 C 17.27 g/m*3 22 C 1.6 km/h
248 29-08-2015 20:35:00 21.9 C 17.37 g/m*3 21.9 C 1.6 km/h
249 29-08-2015 20:40:00 21.8 C 17.27 g/m*3 21.8 C 1.6 km/h
250 29-08-2015 20:45:00 21.8 C 17.27 g/m*3 21.8 C 0 km/h
Sensor: Nr:Datum:Temp:Abs-Feuchte:Windchill:Wind:
Aussen-T/F 251 29-08-2015 20:50:00 21.7 C 17.17 g/m*3 21.7 C 0 km/h
252 29-08-2015 20:55:00 21.6 C 17.07 g/m*3 21.6 C 1.6 km/h
253 29-08-2015 21:00:00 21.6 C 17.07 g/m*3 21.6 C 1.6 km/h
254 29-08-2015 21:05:00 21.5 C 16.97 g/m*3 21.5 C 1.6 km/h
255 29-08-2015 21:10:00 21.4 C 17.06 g/m*3 21.4 C 0 km/h
256 29-08-2015 21:15:00 21.4 C 17.06 g/m*3 21.4 C 0 km/h
257 29-08-2015 21:20:00 21.3 C 16.96 g/m*3 21.3 C 0 km/h
258 29-08-2015 21:25:00 21.3 C 16.96 g/m*3 21.3 C 0 km/h
259 29-08-2015 21:30:00 21.2 C 16.86 g/m*3 21.2 C 0 km/h
260 29-08-2015 21:35:00 21.2 C 16.86 g/m*3 21.2 C 0 km/h
261 29-08-2015 21:40:00 21.1 C 16.77 g/m*3 21.1 C 0 km/h
262 29-08-2015 21:45:00 21.1 C 16.77 g/m*3 21.1 C 0 km/h
263 29-08-2015 21:50:00 21 C 16.67 g/m*3 21 C 0 km/h
264 29-08-2015 21:55:00 20.9 C 16.76 g/m*3 20.9 C 0 km/h
265 29-08-2015 22:00:00 20.9 C 16.76 g/m*3 20.9 C 0 km/h
266 29-08-2015 22:05:00 20.8 C 16.66 g/m*3 20.8 C 0 km/h
267 29-08-2015 22:10:00 20.8 C 16.66 g/m*3 20.8 C 0 km/h
268 29-08-2015 22:15:00 20.7 C 16.56 g/m*3 20.7 C 0 km/h
269 29-08-2015 22:20:00 20.7 C 16.74 g/m*3 20.7 C 0 km/h
270 29-08-2015 22:25:00 20.6 C 16.47 g/m*3 20.6 C 0 km/h
271 29-08-2015 22:30:00 20.6 C 16.64 g/m*3 20.6 C 0 km/h
272 29-08-2015 22:35:00 20.6 C 16.64 g/m*3 20.6 C 0 km/h
273 29-08-2015 22:40:00 20.6 C 16.64 g/m*3 20.6 C 0 km/h
274 29-08-2015 22:45:00 20.6 C 16.64 g/m*3 20.6 C 0 km/h
275 29-08-2015 22:50:00 20.6 C 16.64 g/m*3 20.6 C 0 km/h
Sensor: Nr:Datum:Temp:Abs-Feuchte:Windchill:Wind:
Aussen-T/F 276 29-08-2015 22:55:00 20.5 C 16.55 g/m*3 20.5 C 0 km/h
277 29-08-2015 23:00:00 20.6 C 16.64 g/m*3 20.6 C 0 km/h
278 29-08-2015 23:05:00 20.4 C 16.45 g/m*3 20.4 C 0 km/h
279 29-08-2015 23:10:00 20.3 C 16.36 g/m*3 20.3 C 0 km/h
280 29-08-2015 23:15:00 20.3 C 16.36 g/m*3 20.3 C 0 km/h
281 29-08-2015 23:20:00 20.2 C 16.26 g/m*3 20.2 C 0 km/h
282 29-08-2015 23:25:00 20.2 C 16.26 g/m*3 20.2 C 0 km/h
283 29-08-2015 23:30:00 20.1 C 16.34 g/m*3 20.1 C 0 km/h
284 29-08-2015 23:35:00 20.1 C 16.34 g/m*3 20.1 C 0 km/h
285 29-08-2015 23:40:00 20 C 16.24 g/m*3 20 C 0 km/h
286 29-08-2015 23:45:00 19.9 C 16.15 g/m*3 19.9 C 0 km/h
287 29-08-2015 23:50:00 19.9 C 16.15 g/m*3 19.9 C 0 km/h
288 29-08-2015 23:55:00 19.8 C 16.06 g/m*3 19.8 C 0 km/h

Legende:
   Min
   Max


Maximal/Minimal-Werte vom 29.08.2015 - 29.08.2015

Sensor Min Max Avg
Temp
(Aussen-T/F)
13 °C
29-08-2015  02:50:00
28.4 °C
29-08-2015  17:35:00
19.31 °C
Abs-Feuchte
(Aussen-T/F)
10.89 g/m*3
29-08-2015  02:50:00
19.74 g/m*3
29-08-2015  17:35:00
14.73 g/m*3
Windchill
(Aussen-T/F)
13 C
29-08-2015  02:50:00
28.4 C
29-08-2015  17:35:00
19.24 C

Die Daten stammen von einer Davis Vantage Pro 2 Wetter-Station und werden unter Linux mit der Software wview2wettercgi und aufbereitet. Alle Angaben erfolgen ohne Gewähr für ihre Vollständigkeit oder Richtigkeit.
Kontakt: Rainer Krienke krienke@uni-koblenz.de . Meine Webseiten an der Uni Koblenz oder privat.
Version: $Revision: 0.78 $